Streamwood, IL (60107)

5:46 PM CDT on August 30, 2015 (GMT -0500)
Manor Pond | | Change Station
CLOSE
Current Station
Personal Weather Station
Location: Schaumburg, IL
Elevation: 840 ft
Nearby Weather Stations

Elev 840 ft 42.03 °N, 88.13 °W | Updated 8 seconds ago

Overcast
Overcast
78.2 °F
Feels Like 80 °F
N
0.0
Wind Variable Wind from North
Gusts 3.0 mph

Today
High -- | Low -- °F
--% Chance of Precip.
Yesterday
High -- | Low -- °F
Precip. -- in
6:15 AM 7:29 PM
Full, 98% visible
Pressure 30.02 in
Visibility 10.0 miles
Clouds Few 3000 ft
Heat Index 80 °F
Dew Point 66 °F
Humidity 67%
Rainfall 0.00 in
Snow Depth Not available.
UV 3 out of 12
Pollen 9.30 out of 12
Air Quality Not available.
Flu Activity Not available.
METAR KDPA 302152Z 26004KT 10SM FEW030 24/17 A3003 RMK AO2 SLP164 T02440172
Pressure 30.02 in
Visibility 10.0 miles
Clouds Few 3000 ft
Heat Index 80 °F
Dew Point 66 °F
Humidity 67%
Rainfall 0.00 in
Snow Depth Not available.
UV 3 out of 12
Pollen 9.30 out of 12
Air Quality Not available.
Flu Activity Not available.
METAR KDPA 302152Z 26004KT 10SM FEW030 24/17 A3003 RMK AO2 SLP164 T02440172

10-Day Weather Forecast

×

Almanac

Astronomy

Aug. 30, 2015 Rise Set
Actual Time
Civil Twilight
Nautical Twilight
Astronomical Twilight
Moon
Length of Visible Light
Length of Day
Tomorrow will be .
, % of the Moon is Illuminated

Today's Extremes

State Highs State Lows

Community

WunderPhotos

Upload Photos

1,851,075 photos uploaded!

WunderBlogs® & News

Nearby

Air Quality

  Air Quality AQ Index Pollutant
Not available.

Snow Depth

Station Depth Elevation

Earthquake Activity

City Distance Mag. Time & Date
Minimum magnitude displayed is 2.5.

Coastal Water Temperatures

Place Temperature

Stations

Nearby Weather Stations

Station Location Temp. Windchill Dew Point Humidity Wind Precip. Elev Updated Type